createdAt,value
2018-12-31T00:00:33.727Z,11.43
2018-12-31T00:03:01.556Z,9.83
2018-12-31T00:05:30.853Z,11.17
2018-12-31T00:07:58.660Z,12.83
2018-12-31T00:10:26.910Z,12.53
2018-12-31T00:12:56.219Z,14.53
2018-12-31T00:15:25.497Z,13.13
2018-12-31T00:17:53.058Z,14.67
2018-12-31T00:20:21.052Z,12.93
2018-12-31T00:22:50.297Z,15.40
2018-12-31T00:25:18.326Z,14.43
2018-12-31T00:27:47.855Z,15.37
2018-12-31T00:30:17.007Z,14.20
2018-12-31T00:32:46.758Z,15.00
2018-12-31T00:35:16.255Z,13.87
2018-12-31T00:37:46.413Z,15.67
2018-12-31T00:40:16.010Z,14.63
2018-12-31T00:42:45.688Z,13.90
2018-12-31T00:45:15.411Z,14.20
2018-12-31T00:47:45.501Z,12.07
2018-12-31T00:50:14.702Z,13.23
2018-12-31T00:52:44.228Z,16.77
2018-12-31T00:55:14.143Z,12.53
2018-12-31T00:57:43.545Z,13.63
2018-12-31T01:00:12.716Z,13.80
2018-12-31T01:02:41.918Z,15.67
2018-12-31T01:05:11.188Z,12.60
2018-12-31T01:07:40.923Z,12.27
2018-12-31T01:10:10.859Z,12.80
2018-12-31T01:12:41.386Z,12.33
2018-12-31T01:15:12.222Z,14.17
2018-12-31T01:17:42.196Z,15.93
2018-12-31T01:20:11.368Z,12.87
2018-12-31T01:22:40.044Z,14.27
2018-12-31T01:25:09.216Z,15.07
2018-12-31T01:27:37.862Z,13.37
2018-12-31T01:30:07.008Z,15.90
2018-12-31T01:32:36.337Z,15.17
2018-12-31T01:35:05.248Z,15.47
2018-12-31T01:37:33.148Z,13.23
2018-12-31T01:40:01.052Z,13.97
2018-12-31T01:42:29.329Z,15.67
2018-12-31T01:44:56.926Z,15.33
2018-12-31T01:47:24.859Z,16.83
2018-12-31T01:49:52.549Z,14.27
2018-12-31T01:52:20.340Z,14.90
2018-12-31T01:54:48.179Z,16.53
2018-12-31T01:57:15.652Z,15.10
2018-12-31T01:59:43.329Z,14.53
2018-12-31T02:02:11.066Z,13.47
2018-12-31T02:04:38.622Z,13.63
2018-12-31T02:07:06.288Z,14.17
2018-12-31T02:09:34.361Z,14.80
2018-12-31T02:12:01.843Z,13.30
2018-12-31T02:14:29.825Z,14.87
2018-12-31T02:16:58.755Z,13.83
2018-12-31T02:19:26.871Z,13.97
2018-12-31T02:21:54.370Z,11.93
2018-12-31T02:24:21.947Z,14.43
2018-12-31T02:26:49.652Z,12.80
2018-12-31T02:29:18.116Z,13.73
2018-12-31T02:31:45.690Z,13.37
2018-12-31T02:34:13.863Z,11.43
2018-12-31T02:36:41.120Z,10.33
2018-12-31T02:39:09.289Z,14.17
2018-12-31T02:41:37.692Z,10.77
2018-12-31T02:44:05.268Z,12.93
2018-12-31T02:46:32.768Z,13.73
2018-12-31T02:49:00.850Z,11.83
2018-12-31T02:51:28.831Z,14.87
2018-12-31T02:53:57.215Z,15.07
2018-12-31T02:56:25.799Z,14.10
2018-12-31T02:58:54.167Z,11.07
2018-12-31T03:01:21.860Z,13.83
2018-12-31T03:03:50.293Z,13.07
2018-12-31T03:06:18.402Z,14.40
2018-12-31T03:08:46.681Z,12.63
2018-12-31T03:11:15.304Z,12.27
2018-12-31T03:13:43.112Z,12.00
2018-12-31T03:16:13.591Z,9.87
2018-12-31T03:18:41.455Z,10.77
2018-12-31T03:21:09.530Z,10.53
2018-12-31T03:23:38.652Z,10.00
2018-12-31T03:26:07.807Z,11.97
2018-12-31T03:28:36.557Z,10.23
2018-12-31T03:31:04.761Z,9.43
2018-12-31T03:33:33.389Z,10.67
2018-12-31T03:36:02.190Z,10.97
2018-12-31T03:38:30.430Z,11.20
2018-12-31T03:40:58.497Z,9.13
2018-12-31T03:43:26.577Z,9.30
2018-12-31T03:45:54.872Z,10.40
2018-12-31T03:48:22.412Z,9.73
2018-12-31T03:50:50.307Z,9.53
2018-12-31T03:53:19.037Z,8.43
2018-12-31T03:55:46.450Z,9.67
2018-12-31T03:58:13.849Z,8.97
2018-12-31T04:00:41.303Z,8.37
2018-12-31T04:03:08.691Z,8.60
2018-12-31T04:05:36.269Z,9.73
2018-12-31T04:08:04.004Z,8.30
2018-12-31T04:10:31.685Z,12.30
2018-12-31T04:12:58.977Z,8.63
2018-12-31T04:15:26.467Z,10.03
2018-12-31T04:17:54.375Z,9.57
2018-12-31T04:20:21.669Z,8.93
2018-12-31T04:22:50.151Z,10.33
2018-12-31T04:25:18.238Z,9.17
2018-12-31T04:27:48.163Z,8.60
2018-12-31T04:30:16.029Z,7.97
2018-12-31T04:32:43.897Z,9.00
2018-12-31T04:35:12.067Z,7.20
2018-12-31T04:37:40.339Z,7.80
2018-12-31T04:40:08.310Z,8.03
2018-12-31T04:42:36.213Z,7.23
2018-12-31T04:45:04.347Z,7.63
2018-12-31T04:47:32.215Z,6.60
2018-12-31T04:49:59.828Z,6.87
2018-12-31T04:52:27.742Z,5.07
2018-12-31T04:54:55.613Z,6.27
2018-12-31T04:57:23.643Z,6.77
2018-12-31T04:59:52.157Z,6.37
2018-12-31T05:02:19.886Z,6.40
2018-12-31T05:04:48.211Z,4.73
2018-12-31T05:07:15.653Z,5.90
2018-12-31T05:09:43.855Z,6.43
2018-12-31T05:12:12.201Z,6.17
2018-12-31T05:14:39.689Z,5.63
2018-12-31T05:17:06.964Z,5.60
2018-12-31T05:19:34.262Z,4.97
2018-12-31T05:22:02.213Z,6.07
2018-12-31T05:24:30.243Z,5.20
2018-12-31T05:26:58.392Z,4.17
2018-12-31T05:29:26.026Z,5.13
2018-12-31T05:31:54.312Z,4.70
2018-12-31T05:34:23.059Z,3.93
2018-12-31T05:36:50.722Z,4.83
2018-12-31T05:39:18.103Z,3.60
2018-12-31T05:41:45.675Z,3.70
2018-12-31T05:44:13.073Z,3.40
2018-12-31T05:46:40.773Z,3.37
2018-12-31T05:49:08.052Z,3.30
2018-12-31T05:51:35.351Z,3.60
2018-12-31T05:54:03.056Z,3.50
2018-12-31T05:56:30.364Z,3.47
2018-12-31T05:58:57.964Z,3.00
2018-12-31T06:01:26.146Z,3.57
2018-12-31T06:03:53.813Z,3.80
2018-12-31T06:06:21.462Z,3.07
2018-12-31T06:08:48.870Z,3.50
2018-12-31T06:11:16.271Z,3.67
2018-12-31T06:13:44.527Z,4.73
2018-12-31T06:16:12.826Z,5.63
2018-12-31T06:18:41.098Z,6.17
2018-12-31T06:21:08.765Z,3.73
2018-12-31T06:23:37.548Z,3.93
2018-12-31T06:26:05.133Z,3.73
2018-12-31T06:28:33.607Z,4.17
2018-12-31T06:31:01.757Z,3.20
2018-12-31T06:33:30.030Z,3.93
2018-12-31T06:35:57.308Z,2.83
2018-12-31T06:38:25.455Z,4.40
2018-12-31T06:40:53.590Z,2.97
2018-12-31T06:43:20.884Z,3.60
2018-12-31T06:45:48.173Z,3.63
2018-12-31T06:48:15.545Z,4.40
2018-12-31T06:50:43.559Z,3.43
2018-12-31T06:53:10.870Z,3.23
2018-12-31T06:55:38.243Z,3.70
2018-12-31T06:58:05.927Z,3.80
2018-12-31T07:00:33.490Z,7.40
2018-12-31T07:03:01.444Z,9.33
2018-12-31T07:05:28.712Z,8.60
2018-12-31T07:07:56.205Z,7.63
2018-12-31T07:10:23.960Z,6.03
2018-12-31T07:12:51.951Z,8.83
2018-12-31T07:15:19.881Z,9.37
2018-12-31T07:17:48.138Z,8.10
2018-12-31T07:20:15.451Z,8.13
2018-12-31T07:22:42.855Z,8.00
2018-12-31T07:25:10.192Z,8.90
2018-12-31T07:27:37.459Z,8.10
2018-12-31T07:30:05.012Z,8.43
2018-12-31T07:32:33.493Z,8.17
2018-12-31T07:35:00.788Z,8.53
2018-12-31T07:37:29.133Z,8.80
2018-12-31T07:39:57.498Z,7.73
2018-12-31T07:42:25.873Z,8.40
2018-12-31T07:44:53.143Z,7.87
2018-12-31T07:47:21.233Z,7.57
2018-12-31T07:49:49.473Z,8.10
2018-12-31T07:52:17.139Z,5.00
2018-12-31T07:54:45.057Z,4.30
2018-12-31T07:57:13.077Z,3.40
2018-12-31T07:59:41.250Z,3.30
2018-12-31T08:02:09.529Z,2.80
2018-12-31T08:04:37.516Z,3.13
2018-12-31T08:07:05.358Z,2.30
2018-12-31T08:09:33.316Z,2.47
2018-12-31T08:12:00.692Z,1.80
2018-12-31T08:14:28.679Z,1.80
2018-12-31T08:16:57.016Z,1.93
2018-12-31T08:19:24.281Z,1.50
2018-12-31T08:21:51.921Z,1.80
2018-12-31T08:24:19.213Z,1.63
2018-12-31T08:26:46.708Z,1.90
2018-12-31T08:29:14.061Z,1.33
2018-12-31T08:31:41.424Z,1.07
2018-12-31T08:34:08.766Z,1.20
2018-12-31T08:36:36.317Z,1.33
2018-12-31T08:39:06.518Z,1.20
2018-12-31T08:41:33.791Z,1.70
2018-12-31T08:44:02.217Z,1.50
2018-12-31T08:46:30.136Z,1.63
2018-12-31T08:48:58.070Z,2.20
2018-12-31T08:51:26.423Z,1.90
2018-12-31T08:53:54.034Z,1.80
2018-12-31T08:56:22.192Z,2.40
2018-12-31T08:58:51.040Z,1.70
2018-12-31T09:01:18.335Z,2.10
2018-12-31T09:03:46.977Z,1.70
2018-12-31T09:06:14.962Z,2.47
2018-12-31T09:08:42.229Z,2.40
2018-12-31T09:11:10.371Z,2.30
2018-12-31T09:13:39.056Z,2.43
2018-12-31T09:16:07.030Z,2.23
2018-12-31T09:18:34.912Z,2.10
2018-12-31T09:21:02.953Z,1.90
2018-12-31T09:23:30.475Z,2.93
2018-12-31T09:25:58.330Z,2.33
2018-12-31T09:28:25.910Z,2.10
2018-12-31T09:30:53.573Z,2.30
2018-12-31T09:33:21.528Z,2.00
2018-12-31T09:35:50.252Z,2.03
2018-12-31T09:38:18.432Z,2.40
2018-12-31T09:40:46.801Z,2.47
2018-12-31T09:43:15.213Z,2.07
2018-12-31T09:45:43.618Z,2.33
2018-12-31T09:48:11.128Z,2.70
2018-12-31T09:50:38.990Z,2.50
2018-12-31T09:53:07.774Z,2.30
2018-12-31T09:55:35.887Z,2.70
2018-12-31T09:58:03.445Z,2.77
2018-12-31T10:00:31.376Z,2.70
2018-12-31T10:02:59.953Z,3.40
2018-12-31T10:05:28.302Z,3.00
2018-12-31T10:07:56.774Z,2.77
2018-12-31T10:10:24.748Z,2.80
2018-12-31T10:12:52.031Z,3.27
2018-12-31T10:15:19.711Z,2.57
2018-12-31T10:17:48.325Z,2.63
2018-12-31T10:20:15.911Z,2.80
2018-12-31T10:22:48.783Z,2.80
2018-12-31T10:25:16.993Z,2.57
2018-12-31T10:27:44.700Z,2.63
2018-12-31T10:30:12.624Z,2.80
2018-12-31T10:32:42.024Z,2.83
2018-12-31T10:35:09.408Z,3.10
2018-12-31T10:37:37.390Z,3.53
2018-12-31T10:40:06.760Z,2.60
2018-12-31T10:42:35.123Z,3.47
2018-12-31T10:45:03.197Z,3.23
2018-12-31T10:47:31.083Z,3.17
2018-12-31T10:49:59.440Z,3.23
2018-12-31T10:52:27.781Z,3.83
2018-12-31T10:54:55.475Z,3.17
2018-12-31T10:57:23.837Z,2.40
2018-12-31T10:59:52.083Z,2.87
2018-12-31T11:02:20.099Z,3.17
2018-12-31T11:04:47.374Z,3.07
2018-12-31T11:07:14.962Z,3.07
2018-12-31T11:09:43.594Z,3.40
2018-12-31T11:12:11.066Z,3.53
2018-12-31T11:14:39.019Z,4.17
2018-12-31T11:17:06.700Z,4.20
2018-12-31T11:19:34.450Z,3.50
2018-12-31T11:22:02.928Z,3.83
2018-12-31T11:24:30.646Z,3.27
2018-12-31T11:26:58.046Z,3.57
2018-12-31T11:29:25.901Z,4.63
2018-12-31T11:31:54.401Z,3.67
2018-12-31T11:34:22.797Z,3.77
2018-12-31T11:36:50.521Z,3.60
2018-12-31T11:39:18.541Z,4.20
2018-12-31T11:41:46.160Z,3.20
2018-12-31T11:44:14.943Z,4.43
2018-12-31T11:46:43.044Z,6.93
2018-12-31T11:49:10.719Z,4.53
2018-12-31T11:51:38.216Z,6.83
2018-12-31T11:54:06.654Z,6.83
2018-12-31T11:56:34.136Z,4.57
2018-12-31T11:59:01.634Z,5.07
2018-12-31T12:01:29.648Z,4.80
2018-12-31T12:03:57.510Z,5.27
2018-12-31T12:06:25.119Z,5.13
2018-12-31T12:08:52.608Z,4.20
2018-12-31T12:11:20.124Z,3.93
2018-12-31T12:13:47.802Z,5.13
2018-12-31T12:16:15.771Z,4.90
2018-12-31T12:18:43.556Z,4.93
2018-12-31T12:21:11.153Z,4.80
2018-12-31T12:23:40.056Z,4.83
2018-12-31T12:26:07.412Z,4.50
2018-12-31T12:28:36.130Z,4.23
2018-12-31T12:31:04.799Z,4.80
2018-12-31T12:33:32.980Z,4.80
2018-12-31T12:36:00.839Z,5.03
2018-12-31T12:38:28.123Z,5.50
2018-12-31T12:40:55.691Z,4.90
2018-12-31T12:43:23.373Z,5.13
2018-12-31T12:45:51.813Z,11.07
2018-12-31T12:48:20.176Z,6.57
2018-12-31T12:50:47.611Z,8.00
2018-12-31T12:53:15.700Z,5.30
2018-12-31T12:55:44.277Z,5.00
2018-12-31T12:58:12.560Z,4.80
2018-12-31T13:00:40.396Z,12.30
2018-12-31T13:03:09.211Z,6.90
2018-12-31T13:05:37.287Z,6.17
2018-12-31T13:08:05.987Z,5.10
2018-12-31T13:10:34.855Z,5.07
2018-12-31T13:13:03.170Z,4.17
2018-12-31T13:15:31.200Z,4.70
2018-12-31T13:17:59.658Z,4.87
2018-12-31T13:20:27.753Z,9.20
2018-12-31T13:22:55.062Z,12.57
2018-12-31T13:25:23.093Z,6.77
2018-12-31T13:27:50.626Z,10.53
2018-12-31T13:30:18.702Z,5.33
2018-12-31T13:32:46.373Z,4.50
2018-12-31T13:35:14.840Z,4.37
2018-12-31T13:37:42.197Z,3.93
2018-12-31T13:40:09.754Z,4.23
2018-12-31T13:42:37.293Z,4.30
2018-12-31T13:45:04.892Z,4.33
2018-12-31T13:47:32.486Z,4.40
2018-12-31T13:50:00.174Z,4.97
2018-12-31T13:52:28.169Z,4.87
2018-12-31T13:54:55.632Z,5.87
2018-12-31T13:57:23.182Z,5.07
2018-12-31T14:00:18.356Z,5.23
2018-12-31T14:02:46.164Z,5.37
2018-12-31T14:05:13.448Z,5.77
2018-12-31T14:07:40.815Z,5.03
2018-12-31T14:10:08.306Z,5.50
2018-12-31T14:12:36.184Z,5.90
2018-12-31T14:15:04.592Z,5.13
2018-12-31T14:17:32.220Z,6.63
2018-12-31T14:19:59.830Z,7.37
2018-12-31T14:22:27.581Z,5.73
2018-12-31T14:24:55.083Z,6.60
2018-12-31T14:27:22.591Z,10.13
2018-12-31T14:29:49.909Z,14.53
2018-12-31T14:32:17.723Z,7.53
2018-12-31T14:34:45.331Z,7.83
2018-12-31T14:37:12.631Z,7.53
2018-12-31T14:39:40.776Z,5.67
2018-12-31T14:42:08.639Z,7.60
2018-12-31T14:44:37.126Z,7.97
2018-12-31T14:47:04.337Z,8.43
2018-12-31T14:49:31.545Z,7.63
2018-12-31T14:51:59.598Z,7.87
2018-12-31T14:54:27.403Z,7.50
2018-12-31T14:56:54.994Z,6.87
2018-12-31T14:59:23.371Z,6.10
2018-12-31T15:01:51.765Z,6.40
2018-12-31T15:04:19.917Z,6.43
2018-12-31T15:06:47.387Z,6.07
2018-12-31T15:09:14.977Z,7.00
2018-12-31T15:11:42.539Z,6.50
2018-12-31T15:14:10.483Z,7.63
2018-12-31T15:16:38.118Z,7.07
2018-12-31T15:19:05.878Z,6.90
2018-12-31T15:21:34.066Z,6.80
2018-12-31T15:24:02.227Z,6.87
2018-12-31T15:26:29.938Z,7.40
2018-12-31T15:28:57.926Z,8.20
2018-12-31T15:31:26.751Z,7.23
2018-12-31T15:33:54.036Z,7.47
2018-12-31T15:36:21.591Z,7.60
2018-12-31T15:38:49.317Z,8.20
2018-12-31T15:41:16.877Z,7.73
2018-12-31T15:43:45.213Z,8.20
2018-12-31T15:46:19.966Z,9.30
2018-12-31T15:48:42.590Z,9.53
2018-12-31T15:51:09.894Z,9.27
2018-12-31T15:53:37.335Z,8.60
2018-12-31T15:56:05.515Z,9.83
2018-12-31T15:58:33.894Z,8.73
2018-12-31T16:01:02.839Z,8.67
2018-12-31T16:03:31.468Z,8.47
2018-12-31T16:06:00.159Z,8.77
2018-12-31T16:08:27.706Z,13.50
2018-12-31T16:10:55.156Z,21.63
2018-12-31T16:13:23.359Z,16.13
2018-12-31T16:15:52.297Z,16.83
2018-12-31T16:18:21.360Z,20.97
2018-12-31T16:20:49.204Z,21.83
2018-12-31T16:23:17.091Z,12.87
2018-12-31T16:25:44.529Z,11.83
2018-12-31T16:28:12.286Z,11.93
2018-12-31T16:30:40.770Z,17.63
2018-12-31T16:33:08.763Z,12.27
2018-12-31T16:35:36.399Z,11.47
2018-12-31T16:38:04.330Z,12.53
2018-12-31T16:40:31.925Z,15.63
2018-12-31T16:42:59.643Z,15.53
2018-12-31T16:45:27.453Z,19.53
2018-12-31T16:47:56.009Z,20.53
2018-12-31T16:50:23.906Z,19.17
2018-12-31T16:52:51.973Z,17.67
2018-12-31T16:55:19.659Z,17.73
2018-12-31T16:57:47.801Z,17.03
2018-12-31T17:00:15.136Z,17.27
2018-12-31T17:02:42.995Z,21.60
2018-12-31T17:05:10.809Z,25.10
2018-12-31T17:07:38.180Z,102.77
2018-12-31T17:10:08.438Z,283.93
2018-12-31T17:12:36.929Z,327.77
2018-12-31T17:15:04.811Z,290.10
2018-12-31T17:17:32.471Z,109.43
2018-12-31T17:20:00.653Z,47.83
2018-12-31T17:22:28.635Z,32.70
2018-12-31T17:24:55.936Z,17.83
2018-12-31T17:27:23.584Z,16.10
2018-12-31T17:29:51.879Z,17.47
2018-12-31T17:32:19.445Z,16.57
2018-12-31T17:34:47.430Z,14.40
2018-12-31T17:37:14.696Z,15.13
2018-12-31T17:39:42.958Z,30.57
2018-12-31T17:42:10.723Z,51.77
2018-12-31T17:44:39.126Z,37.77
2018-12-31T17:47:09.354Z,37.27
2018-12-31T17:49:37.378Z,31.20
2018-12-31T17:52:05.028Z,23.37
2018-12-31T17:54:33.060Z,20.00
2018-12-31T17:57:00.932Z,17.87
2018-12-31T17:59:30.351Z,19.87
2018-12-31T18:01:57.949Z,20.00
2018-12-31T18:04:25.923Z,19.93
2018-12-31T18:06:53.979Z,19.83
2018-12-31T18:09:21.548Z,18.83
2018-12-31T18:11:50.028Z,19.10
2018-12-31T18:14:18.465Z,21.57
2018-12-31T18:16:46.822Z,21.30
2018-12-31T18:19:14.750Z,23.20
2018-12-31T18:21:42.299Z,24.00
2018-12-31T18:24:10.203Z,23.30
2018-12-31T18:26:37.943Z,21.27
2018-12-31T18:29:06.108Z,23.17
2018-12-31T18:31:33.635Z,30.50
2018-12-31T18:34:03.582Z,29.53
2018-12-31T18:36:31.864Z,31.87
2018-12-31T18:38:59.423Z,40.03
2018-12-31T18:41:27.641Z,34.93
2018-12-31T18:43:56.280Z,33.80
2018-12-31T18:46:24.706Z,31.97
2018-12-31T18:48:52.572Z,29.40
2018-12-31T18:51:20.179Z,28.57
2018-12-31T18:53:48.454Z,28.10
2018-12-31T18:56:16.541Z,26.67
2018-12-31T18:58:44.092Z,33.50
2018-12-31T19:01:12.592Z,282.10
2018-12-31T19:03:39.865Z,40.73
2018-12-31T19:06:07.374Z,37.17
2018-12-31T19:08:35.446Z,48.40
2018-12-31T19:11:03.456Z,48.13
2018-12-31T19:13:30.687Z,49.83
2018-12-31T19:15:58.755Z,50.93
2018-12-31T19:18:26.074Z,44.07
2018-12-31T19:20:53.490Z,47.67
2018-12-31T19:23:21.926Z,53.83
2018-12-31T19:25:50.009Z,49.97
2018-12-31T19:28:18.165Z,73.93
2018-12-31T19:30:46.783Z,77.77
2018-12-31T19:33:14.623Z,83.13
2018-12-31T19:35:41.941Z,101.77
2018-12-31T19:38:09.531Z,87.43
2018-12-31T19:40:37.499Z,78.40
2018-12-31T19:43:05.164Z,63.07
2018-12-31T19:45:32.897Z,53.77
2018-12-31T19:48:00.356Z,56.73
2018-12-31T19:50:28.693Z,67.17
2018-12-31T19:52:56.631Z,61.03
2018-12-31T19:55:24.346Z,77.00
2018-12-31T19:57:52.262Z,77.33
2018-12-31T20:00:20.518Z,102.13
2018-12-31T20:02:49.210Z,118.73
2018-12-31T20:05:17.282Z,143.37
2018-12-31T20:07:44.848Z,179.30
2018-12-31T20:10:13.022Z,188.93
2018-12-31T20:12:41.078Z,214.03
2018-12-31T20:15:08.469Z,162.10
2018-12-31T20:17:35.770Z,150.23
2018-12-31T20:20:03.632Z,144.23
2018-12-31T20:22:31.476Z,144.70
2018-12-31T20:24:59.115Z,164.07
2018-12-31T20:27:26.503Z,141.00
2018-12-31T20:29:53.819Z,131.17
2018-12-31T20:32:21.124Z,150.10
2018-12-31T20:34:48.509Z,139.90
2018-12-31T20:37:15.781Z,142.43
2018-12-31T20:39:43.356Z,135.97
2018-12-31T20:42:11.296Z,152.23
2018-12-31T20:44:39.109Z,133.10
2018-12-31T20:47:06.420Z,132.93
2018-12-31T20:49:33.916Z,117.23
2018-12-31T20:52:02.084Z,102.30
2018-12-31T20:54:30.287Z,108.77
2018-12-31T20:56:58.074Z,93.07
2018-12-31T20:59:26.228Z,118.93
2018-12-31T21:01:53.961Z,107.63
2018-12-31T21:04:22.062Z,95.57
2018-12-31T21:06:49.504Z,100.57
2018-12-31T21:09:17.156Z,81.33
2018-12-31T21:11:45.557Z,82.60
2018-12-31T21:14:12.959Z,71.97
2018-12-31T21:16:41.227Z,74.63
2018-12-31T21:19:08.611Z,63.30
2018-12-31T21:21:36.025Z,60.70
2018-12-31T21:24:03.966Z,63.60
2018-12-31T21:26:31.551Z,510.77
2018-12-31T21:28:59.152Z,71.63
2018-12-31T21:31:28.075Z,64.07
2018-12-31T21:33:55.363Z,67.03
2018-12-31T21:36:23.783Z,189.67
2018-12-31T21:38:51.768Z,114.90
2018-12-31T21:41:19.273Z,139.80
2018-12-31T21:43:46.722Z,139.63
2018-12-31T21:46:14.255Z,145.23
2018-12-31T21:48:41.600Z,144.63
2018-12-31T21:51:09.669Z,118.67
2018-12-31T21:53:37.903Z,80.70
2018-12-31T21:56:06.217Z,76.43
2018-12-31T21:58:34.596Z,74.80
2018-12-31T22:01:02.425Z,78.67
2018-12-31T22:03:30.016Z,73.60
2018-12-31T22:05:58.469Z,76.00
2018-12-31T22:08:26.782Z,91.87
2018-12-31T22:10:55.231Z,143.27
2018-12-31T22:13:23.518Z,127.03
2018-12-31T22:15:51.533Z,103.27
2018-12-31T22:18:19.808Z,137.97
2018-12-31T22:20:48.265Z,117.17
2018-12-31T22:23:16.448Z,127.70
2018-12-31T22:25:44.244Z,113.77
2018-12-31T22:28:11.853Z,120.20
2018-12-31T22:30:39.323Z,126.57
2018-12-31T22:33:06.711Z,128.10
2018-12-31T22:35:34.108Z,121.07
2018-12-31T22:38:02.314Z,114.13
2018-12-31T22:40:30.226Z,165.13
2018-12-31T22:42:57.826Z,136.43
2018-12-31T22:45:25.781Z,114.30
2018-12-31T22:47:53.066Z,107.07
2018-12-31T22:50:20.748Z,110.50
2018-12-31T22:52:48.124Z,114.57
2018-12-31T22:55:15.825Z,67.00
2018-12-31T22:57:43.958Z,68.23
2018-12-31T23:00:11.290Z,56.33
2018-12-31T23:02:39.787Z,47.93
2018-12-31T23:05:10.027Z,95.33
2018-12-31T23:07:37.606Z,70.33
2018-12-31T23:10:07.093Z,126.30
2018-12-31T23:12:35.485Z,224.00
2018-12-31T23:15:17.291Z,521.07
2018-12-31T23:17:45.353Z,275.90
2018-12-31T23:20:13.344Z,242.73
2018-12-31T23:22:40.790Z,231.50
2018-12-31T23:25:09.995Z,290.13
2018-12-31T23:27:43.844Z,442.10
2018-12-31T23:30:12.682Z,415.70
2018-12-31T23:32:40.764Z,282.03
2018-12-31T23:35:09.013Z,275.53
2018-12-31T23:37:40.133Z,278.73
2018-12-31T23:40:08.267Z,271.33
2018-12-31T23:42:37.291Z,326.50
2018-12-31T23:45:06.761Z,461.77
2018-12-31T23:47:34.748Z,486.93
2018-12-31T23:50:02.556Z,601.80
2018-12-31T23:52:30.424Z,637.03
2018-12-31T23:54:58.903Z,641.33
2018-12-31T23:57:28.211Z,646.77
2018-12-31T23:59:56.297Z,676.97
